sensor_id;sensor_type;location;lat;lon;timestamp;pressure;altitude;pressure_sealevel;temperature;humidity
4767;BME280;2397;53.576;9.746;2023-02-15T00:02:22;102992.47;;;3.26;100.00
4767;BME280;2397;53.576;9.746;2023-02-15T00:04:50;102983.94;;;3.26;100.00
4767;BME280;2397;53.576;9.746;2023-02-15T00:07:18;102989.03;;;3.26;100.00
4767;BME280;2397;53.576;9.746;2023-02-15T00:09:45;102993.16;;;3.13;100.00
4767;BME280;2397;53.576;9.746;2023-02-15T00:12:12;102988.22;;;2.94;100.00
4767;BME280;2397;53.576;9.746;2023-02-15T00:14:38;102977.63;;;2.90;100.00
4767;BME280;2397;53.576;9.746;2023-02-15T00:17:05;102989.50;;;2.99;100.00
4767;BME280;2397;53.576;9.746;2023-02-15T00:19:31;102989.88;;;3.04;100.00
4767;BME280;2397;53.576;9.746;2023-02-15T00:21:58;102977.72;;;3.02;100.00
4767;BME280;2397;53.576;9.746;2023-02-15T00:24:24;102978.03;;;2.84;100.00
4767;BME280;2397;53.576;9.746;2023-02-15T00:26:50;102973.59;;;2.71;100.00
4767;BME280;2397;53.576;9.746;2023-02-15T00:29:18;102969.00;;;2.67;100.00
4767;BME280;2397;53.576;9.746;2023-02-15T00:31:45;102970.00;;;2.69;100.00
4767;BME280;2397;53.576;9.746;2023-02-15T00:34:15;102959.41;;;2.54;100.00
4767;BME280;2397;53.576;9.746;2023-02-15T00:36:42;102964.66;;;2.56;100.00
4767;BME280;2397;53.576;9.746;2023-02-15T00:39:10;102961.34;;;2.57;100.00
4767;BME280;2397;53.576;9.746;2023-02-15T00:41:36;102958.91;;;2.58;100.00
4767;BME280;2397;53.576;9.746;2023-02-15T00:44:04;102952.13;;;2.59;100.00
4767;BME280;2397;53.576;9.746;2023-02-15T00:46:31;102956.22;;;2.67;100.00
4767;BME280;2397;53.576;9.746;2023-02-15T00:48:58;102963.09;;;2.78;100.00
4767;BME280;2397;53.576;9.746;2023-02-15T00:51:25;102956.69;;;2.84;100.00
4767;BME280;2397;53.576;9.746;2023-02-15T00:53:51;102957.69;;;2.86;100.00
4767;BME280;2397;53.576;9.746;2023-02-15T00:56:18;102959.22;;;2.84;100.00
4767;BME280;2397;53.576;9.746;2023-02-15T00:58:45;102954.41;;;2.66;100.00
4767;BME280;2397;53.576;9.746;2023-02-15T01:01:17;102959.78;;;2.59;100.00
4767;BME280;2397;53.576;9.746;2023-02-15T01:03:44;102959.16;;;2.61;100.00
4767;BME280;2397;53.576;9.746;2023-02-15T01:06:14;102957.22;;;2.69;100.00
4767;BME280;2397;53.576;9.746;2023-02-15T01:08:42;102961.19;;;2.66;100.00
4767;BME280;2397;53.576;9.746;2023-02-15T01:11:11;102961.47;;;2.58;100.00
4767;BME280;2397;53.576;9.746;2023-02-15T01:13:38;102957.63;;;2.63;100.00
4767;BME280;2397;53.576;9.746;2023-02-15T01:16:04;102958.88;;;2.69;100.00
4767;BME280;2397;53.576;9.746;2023-02-15T01:18:32;102959.16;;;2.61;100.00
4767;BME280;2397;53.576;9.746;2023-02-15T01:20:59;102956.81;;;2.75;100.00
4767;BME280;2397;53.576;9.746;2023-02-15T01:23:25;102951.06;;;2.77;100.00
4767;BME280;2397;53.576;9.746;2023-02-15T01:25:52;102948.03;;;2.71;100.00
4767;BME280;2397;53.576;9.746;2023-02-15T01:28:18;102944.97;;;2.65;100.00
4767;BME280;2397;53.576;9.746;2023-02-15T01:30:45;102939.97;;;2.77;100.00
4767;BME280;2397;53.576;9.746;2023-02-15T01:33:11;102937.53;;;2.78;100.00
4767;BME280;2397;53.576;9.746;2023-02-15T01:35:45;102937.75;;;2.81;100.00
4767;BME280;2397;53.576;9.746;2023-02-15T01:38:13;102932.91;;;2.85;100.00
4767;BME280;2397;53.576;9.746;2023-02-15T01:40:39;102936.69;;;2.90;100.00
4767;BME280;2397;53.576;9.746;2023-02-15T01:43:11;102933.75;;;2.95;100.00
4767;BME280;2397;53.576;9.746;2023-02-15T01:45:38;102928.38;;;2.92;100.00
4767;BME280;2397;53.576;9.746;2023-02-15T01:48:15;102923.41;;;2.84;100.00
4767;BME280;2397;53.576;9.746;2023-02-15T01:50:47;102918.44;;;2.85;100.00
4767;BME280;2397;53.576;9.746;2023-02-15T01:55:57;102914.28;;;2.65;100.00
4767;BME280;2397;53.576;9.746;2023-02-15T01:58:27;102912.75;;;2.57;100.00
4767;BME280;2397;53.576;9.746;2023-02-15T02:00:57;102901.91;;;2.49;100.00
4767;BME280;2397;53.576;9.746;2023-02-15T02:03:41;102899.50;;;2.40;100.00
4767;BME280;2397;53.576;9.746;2023-02-15T02:06:10;102900.25;;;2.50;100.00
4767;BME280;2397;53.576;9.746;2023-02-15T02:08:38;102896.41;;;2.55;100.00
4767;BME280;2397;53.576;9.746;2023-02-15T02:11:12;102899.09;;;2.56;100.00
4767;BME280;2397;53.576;9.746;2023-02-15T02:13:43;102897.63;;;2.70;100.00
4767;BME280;2397;53.576;9.746;2023-02-15T02:16:18;102892.28;;;2.67;100.00
4767;BME280;2397;53.576;9.746;2023-02-15T02:21:45;102883.97;;;2.70;100.00
4767;BME280;2397;53.576;9.746;2023-02-15T02:27:09;102883.16;;;2.71;100.00
4767;BME280;2397;53.576;9.746;2023-02-15T02:32:52;102867.44;;;2.76;100.00
4767;BME280;2397;53.576;9.746;2023-02-15T02:35:34;102862.31;;;2.76;100.00
4767;BME280;2397;53.576;9.746;2023-02-15T02:38:27;102858.75;;;2.74;100.00
4767;BME280;2397;53.576;9.746;2023-02-15T02:41:10;102864.59;;;2.84;100.00
4767;BME280;2397;53.576;9.746;2023-02-15T02:43:51;102857.56;;;2.81;100.00
4767;BME280;2397;53.576;9.746;2023-02-15T02:46:25;102868.19;;;2.75;100.00
4767;BME280;2397;53.576;9.746;2023-02-15T02:48:54;102862.44;;;2.78;100.00
4767;BME280;2397;53.576;9.746;2023-02-15T02:51:21;102865.13;;;2.79;100.00
4767;BME280;2397;53.576;9.746;2023-02-15T02:53:53;102859.88;;;2.78;100.00
4767;BME280;2397;53.576;9.746;2023-02-15T02:56:36;102863.03;;;2.86;100.00
4767;BME280;2397;53.576;9.746;2023-02-15T02:59:12;102854.72;;;2.88;100.00
4767;BME280;2397;53.576;9.746;2023-02-15T03:01:46;102851.28;;;2.88;100.00
4767;BME280;2397;53.576;9.746;2023-02-15T03:04:18;102855.91;;;2.81;100.00
4767;BME280;2397;53.576;9.746;2023-02-15T03:06:52;102860.13;;;2.81;100.00
4767;BME280;2397;53.576;9.746;2023-02-15T03:12:01;102853.88;;;2.77;100.00
4767;BME280;2397;53.576;9.746;2023-02-15T03:14:30;102853.41;;;2.71;100.00
4767;BME280;2397;53.576;9.746;2023-02-15T03:16:58;102854.03;;;2.69;100.00
4767;BME280;2397;53.576;9.746;2023-02-15T03:19:30;102843.69;;;2.67;100.00
4767;BME280;2397;53.576;9.746;2023-02-15T03:22:03;102846.81;;;2.53;100.00
4767;BME280;2397;53.576;9.746;2023-02-15T03:24:44;102850.88;;;2.61;100.00
4767;BME280;2397;53.576;9.746;2023-02-15T03:27:17;102851.75;;;2.61;100.00
4767;BME280;2397;53.576;9.746;2023-02-15T03:29:49;102845.38;;;2.67;100.00
4767;BME280;2397;53.576;9.746;2023-02-15T03:32:16;102846.50;;;2.70;100.00
4767;BME280;2397;53.576;9.746;2023-02-15T03:34:43;102842.56;;;2.63;100.00
4767;BME280;2397;53.576;9.746;2023-02-15T03:37:15;102833.50;;;2.57;100.00
4767;BME280;2397;53.576;9.746;2023-02-15T03:39:51;102835.56;;;2.51;100.00
4767;BME280;2397;53.576;9.746;2023-02-15T03:42:27;102824.59;;;2.52;100.00
4767;BME280;2397;53.576;9.746;2023-02-15T03:45:05;102819.47;;;2.52;100.00
4767;BME280;2397;53.576;9.746;2023-02-15T03:47:36;102817.69;;;2.51;100.00
4767;BME280;2397;53.576;9.746;2023-02-15T03:50:12;102814.63;;;2.44;100.00
4767;BME280;2397;53.576;9.746;2023-02-15T03:53:00;102819.00;;;2.35;100.00
4767;BME280;2397;53.576;9.746;2023-02-15T03:55:29;102814.66;;;2.34;100.00
4767;BME280;2397;53.576;9.746;2023-02-15T03:57:55;102807.13;;;2.36;100.00
4767;BME280;2397;53.576;9.746;2023-02-15T04:00:48;102811.06;;;2.42;100.00
4767;BME280;2397;53.576;9.746;2023-02-15T04:03:57;102810.41;;;2.45;100.00
4767;BME280;2397;53.576;9.746;2023-02-15T04:06:25;102804.06;;;2.40;100.00
4767;BME280;2397;53.576;9.746;2023-02-15T04:08:51;102804.41;;;2.44;100.00
4767;BME280;2397;53.576;9.746;2023-02-15T04:11:36;102813.59;;;2.42;100.00
4767;BME280;2397;53.576;9.746;2023-02-15T04:14:03;102808.97;;;2.49;100.00
4767;BME280;2397;53.576;9.746;2023-02-15T04:16:49;102800.25;;;2.57;100.00
4767;BME280;2397;53.576;9.746;2023-02-15T04:19:16;102791.03;;;2.59;100.00
4767;BME280;2397;53.576;9.746;2023-02-15T04:22:01;102787.47;;;2.57;100.00
4767;BME280;2397;53.576;9.746;2023-02-15T04:24:46;102794.63;;;2.61;100.00
4767;BME280;2397;53.576;9.746;2023-02-15T04:27:31;102789.75;;;2.64;100.00
4767;BME280;2397;53.576;9.746;2023-02-15T04:29:57;102791.56;;;2.65;100.00
4767;BME280;2397;53.576;9.746;2023-02-15T04:32:24;102808.66;;;2.66;100.00
4767;BME280;2397;53.576;9.746;2023-02-15T04:34:50;102798.47;;;2.56;100.00
4767;BME280;2397;53.576;9.746;2023-02-15T04:37:16;102803.47;;;2.54;100.00
4767;BME280;2397;53.576;9.746;2023-02-15T04:39:43;102802.34;;;2.51;100.00
4767;BME280;2397;53.576;9.746;2023-02-15T04:42:09;102805.41;;;2.46;100.00
4767;BME280;2397;53.576;9.746;2023-02-15T04:44:35;102798.63;;;2.47;100.00
4767;BME280;2397;53.576;9.746;2023-02-15T04:47:02;102795.94;;;2.45;100.00
4767;BME280;2397;53.576;9.746;2023-02-15T04:49:29;102795.34;;;2.38;100.00
4767;BME280;2397;53.576;9.746;2023-02-15T04:51:55;102787.31;;;2.33;100.00
4767;BME280;2397;53.576;9.746;2023-02-15T04:54:21;102783.25;;;2.25;100.00
4767;BME280;2397;53.576;9.746;2023-02-15T04:56:48;102781.47;;;2.24;100.00
4767;BME280;2397;53.576;9.746;2023-02-15T04:59:14;102782.75;;;2.19;100.00
4767;BME280;2397;53.576;9.746;2023-02-15T05:01:41;102789.66;;;2.20;100.00
4767;BME280;2397;53.576;9.746;2023-02-15T05:04:07;102771.91;;;2.21;100.00
4767;BME280;2397;53.576;9.746;2023-02-15T05:06:34;102776.13;;;2.21;100.00
4767;BME280;2397;53.576;9.746;2023-02-15T05:09:01;102768.22;;;2.18;100.00
4767;BME280;2397;53.576;9.746;2023-02-15T05:11:28;102768.09;;;2.16;100.00
4767;BME280;2397;53.576;9.746;2023-02-15T05:13:54;102770.09;;;2.20;100.00
4767;BME280;2397;53.576;9.746;2023-02-15T05:16:21;102768.50;;;2.10;100.00
4767;BME280;2397;53.576;9.746;2023-02-15T05:18:47;102773.88;;;2.03;100.00
4767;BME280;2397;53.576;9.746;2023-02-15T05:21:14;102765.72;;;1.97;100.00
4767;BME280;2397;53.576;9.746;2023-02-15T05:23:42;102760.38;;;1.94;100.00
4767;BME280;2397;53.576;9.746;2023-02-15T05:26:15;102761.88;;;1.92;100.00
4767;BME280;2397;53.576;9.746;2023-02-15T05:29:01;102758.69;;;1.95;100.00
4767;BME280;2397;53.576;9.746;2023-02-15T05:31:27;102762.03;;;1.83;100.00
4767;BME280;2397;53.576;9.746;2023-02-15T05:33:54;102745.19;;;1.75;100.00
4767;BME280;2397;53.576;9.746;2023-02-15T05:36:20;102750.69;;;1.80;100.00
4767;BME280;2397;53.576;9.746;2023-02-15T05:38:47;102747.88;;;1.77;100.00
4767;BME280;2397;53.576;9.746;2023-02-15T05:41:13;102751.94;;;1.74;100.00
4767;BME280;2397;53.576;9.746;2023-02-15T05:43:40;102740.34;;;1.68;100.00
4767;BME280;2397;53.576;9.746;2023-02-15T05:46:07;102734.09;;;1.64;100.00
4767;BME280;2397;53.576;9.746;2023-02-15T05:48:34;102748.38;;;1.72;100.00
4767;BME280;2397;53.576;9.746;2023-02-15T05:51:11;102736.00;;;1.77;100.00
4767;BME280;2397;53.576;9.746;2023-02-15T05:53:43;102743.78;;;1.79;100.00
4767;BME280;2397;53.576;9.746;2023-02-15T05:56:10;102748.63;;;1.75;100.00
4767;BME280;2397;53.576;9.746;2023-02-15T05:58:39;102754.75;;;1.78;100.00
4767;BME280;2397;53.576;9.746;2023-02-15T06:01:10;102750.81;;;1.71;100.00
4767;BME280;2397;53.576;9.746;2023-02-15T06:03:37;102755.78;;;1.69;100.00
4767;BME280;2397;53.576;9.746;2023-02-15T06:06:04;102755.28;;;1.73;100.00
4767;BME280;2397;53.576;9.746;2023-02-15T06:08:32;102758.47;;;1.71;100.00
4767;BME280;2397;53.576;9.746;2023-02-15T06:10:58;102757.72;;;1.62;100.00
4767;BME280;2397;53.576;9.746;2023-02-15T06:13:25;102750.22;;;1.53;100.00
4767;BME280;2397;53.576;9.746;2023-02-15T06:15:51;102749.97;;;1.50;100.00
4767;BME280;2397;53.576;9.746;2023-02-15T06:18:18;102750.22;;;1.43;100.00
4767;BME280;2397;53.576;9.746;2023-02-15T06:20:48;102750.47;;;1.35;100.00
4767;BME280;2397;53.576;9.746;2023-02-15T06:23:16;102749.59;;;1.35;100.00
4767;BME280;2397;53.576;9.746;2023-02-15T06:25:44;102751.22;;;1.45;100.00
4767;BME280;2397;53.576;9.746;2023-02-15T06:28:10;102751.47;;;1.58;100.00
4767;BME280;2397;53.576;9.746;2023-02-15T06:30:37;102747.66;;;1.53;100.00
4767;BME280;2397;53.576;9.746;2023-02-15T06:33:03;102741.13;;;1.46;100.00
4767;BME280;2397;53.576;9.746;2023-02-15T06:35:29;102740.50;;;1.38;100.00
4767;BME280;2397;53.576;9.746;2023-02-15T06:37:56;102740.50;;;1.38;100.00
4767;BME280;2397;53.576;9.746;2023-02-15T06:40:22;102743.06;;;1.38;100.00
4767;BME280;2397;53.576;9.746;2023-02-15T06:42:49;102747.16;;;1.36;100.00
4767;BME280;2397;53.576;9.746;2023-02-15T06:45:15;102750.72;;;1.38;100.00
4767;BME280;2397;53.576;9.746;2023-02-15T06:47:41;102750.97;;;1.31;100.00
4767;BME280;2397;53.576;9.746;2023-02-15T06:50:08;102755.81;;;1.18;100.00
4767;BME280;2397;53.576;9.746;2023-02-15T06:52:35;102748.03;;;1.16;100.00
4767;BME280;2397;53.576;9.746;2023-02-15T06:55:02;102751.75;;;1.20;100.00
4767;BME280;2397;53.576;9.746;2023-02-15T06:57:28;102748.41;;;1.11;100.00
4767;BME280;2397;53.576;9.746;2023-02-15T06:59:55;102753.22;;;0.97;100.00
4767;BME280;2397;53.576;9.746;2023-02-15T07:02:21;102754.41;;;1.01;100.00
4767;BME280;2397;53.576;9.746;2023-02-15T07:04:47;102736.66;;;0.92;100.00
4767;BME280;2397;53.576;9.746;2023-02-15T07:07:14;102740.72;;;1.00;100.00
4767;BME280;2397;53.576;9.746;2023-02-15T07:09:40;102750.94;;;1.11;100.00
4767;BME280;2397;53.576;9.746;2023-02-15T07:12:07;102736.94;;;1.16;100.00
4767;BME280;2397;53.576;9.746;2023-02-15T07:14:52;102742.53;;;1.12;100.00
4767;BME280;2397;53.576;9.746;2023-02-15T07:17:18;102744.09;;;1.10;100.00
4767;BME280;2397;53.576;9.746;2023-02-15T07:20:04;102746.50;;;1.08;100.00
4767;BME280;2397;53.576;9.746;2023-02-15T07:22:31;102740.88;;;1.02;100.00
4767;BME280;2397;53.576;9.746;2023-02-15T07:25:00;102732.22;;;1.10;100.00
4767;BME280;2397;53.576;9.746;2023-02-15T07:27:26;102733.09;;;1.21;100.00
4767;BME280;2397;53.576;9.746;2023-02-15T07:29:52;102728.78;;;1.20;100.00
4767;BME280;2397;53.576;9.746;2023-02-15T07:32:19;102722.13;;;1.22;100.00
4767;BME280;2397;53.576;9.746;2023-02-15T07:34:45;102727.00;;;1.29;100.00
4767;BME280;2397;53.576;9.746;2023-02-15T07:37:12;102721.88;;;1.29;100.00
4767;BME280;2397;53.576;9.746;2023-02-15T07:39:38;102722.91;;;1.31;100.00
4767;BME280;2397;53.576;9.746;2023-02-15T07:42:04;102721.50;;;1.35;100.00
4767;BME280;2397;53.576;9.746;2023-02-15T07:44:31;102726.50;;;1.33;100.00
4767;BME280;2397;53.576;9.746;2023-02-15T07:46:57;102714.22;;;1.29;100.00
4767;BME280;2397;53.576;9.746;2023-02-15T07:49:24;102714.09;;;1.28;100.00
4767;BME280;2397;53.576;9.746;2023-02-15T07:51:50;102717.28;;;1.25;100.00
4767;BME280;2397;53.576;9.746;2023-02-15T07:54:16;102712.94;;;1.24;100.00
4767;BME280;2397;53.576;9.746;2023-02-15T07:56:43;102707.34;;;1.28;100.00
4767;BME280;2397;53.576;9.746;2023-02-15T07:59:09;102708.09;;;1.37;100.00
4767;BME280;2397;53.576;9.746;2023-02-15T08:01:37;102707.34;;;1.28;100.00
4767;BME280;2397;53.576;9.746;2023-02-15T08:04:05;102700.72;;;1.20;100.00
4767;BME280;2397;53.576;9.746;2023-02-15T08:06:35;102686.44;;;1.22;100.00
4767;BME280;2397;53.576;9.746;2023-02-15T08:09:06;102695.88;;;1.13;100.00
4767;BME280;2397;53.576;9.746;2023-02-15T08:11:35;102687.44;;;1.03;100.00
4767;BME280;2397;53.576;9.746;2023-02-15T08:14:10;102692.03;;;1.08;100.00
4767;BME280;2397;53.576;9.746;2023-02-15T08:16:39;102685.13;;;1.07;100.00
4767;BME280;2397;53.576;9.746;2023-02-15T08:19:20;102682.59;;;1.07;100.00
4767;BME280;2397;53.576;9.746;2023-02-15T08:21:49;102670.25;;;1.01;100.00
4767;BME280;2397;53.576;9.746;2023-02-15T08:24:20;102674.81;;;0.84;100.00
4767;BME280;2397;53.576;9.746;2023-02-15T08:26:47;102680.94;;;0.86;100.00
4767;BME280;2397;53.576;9.746;2023-02-15T08:29:15;102679.91;;;0.95;100.00
4767;BME280;2397;53.576;9.746;2023-02-15T08:31:42;102675.97;;;1.09;100.00
4767;BME280;2397;53.576;9.746;2023-02-15T08:34:11;102681.56;;;1.15;100.00
4767;BME280;2397;53.576;9.746;2023-02-15T08:36:37;102689.22;;;1.25;100.00
4767;BME280;2397;53.576;9.746;2023-02-15T08:39:05;102692.16;;;1.30;100.00
4767;BME280;2397;53.576;9.746;2023-02-15T08:41:37;102691.91;;;1.37;100.00
4767;BME280;2397;53.576;9.746;2023-02-15T08:44:05;102691.28;;;1.29;100.00
4767;BME280;2397;53.576;9.746;2023-02-15T08:46:35;102693.19;;;1.32;100.00
4767;BME280;2397;53.576;9.746;2023-02-15T08:49:02;102691.25;;;1.39;100.00
4767;BME280;2397;53.576;9.746;2023-02-15T08:51:33;102684.84;;;1.45;100.00
4767;BME280;2397;53.576;9.746;2023-02-15T08:54:03;102685.78;;;1.25;100.00
4767;BME280;2397;53.576;9.746;2023-02-15T08:56:33;102684.13;;;1.15;100.00
4767;BME280;2397;53.576;9.746;2023-02-15T08:59:01;102684.13;;;1.15;100.00
4767;BME280;2397;53.576;9.746;2023-02-15T09:01:29;102679.53;;;1.21;100.00
4767;BME280;2397;53.576;9.746;2023-02-15T09:03:59;102681.69;;;1.27;100.00
4767;BME280;2397;53.576;9.746;2023-02-15T09:06:26;102675.69;;;1.36;100.00
4767;BME280;2397;53.576;9.746;2023-02-15T09:08:54;102678.75;;;1.53;100.00
4767;BME280;2397;53.576;9.746;2023-02-15T09:11:28;102675.38;;;1.64;100.00
4767;BME280;2397;53.576;9.746;2023-02-15T09:13:57;102681.25;;;1.73;100.00
4767;BME280;2397;53.576;9.746;2023-02-15T09:16:27;102684.03;;;1.77;100.00
4767;BME280;2397;53.576;9.746;2023-02-15T09:18:55;102686.31;;;1.84;100.00
4767;BME280;2397;53.576;9.746;2023-02-15T09:21:25;102683.22;;;1.88;100.00
4767;BME280;2397;53.576;9.746;2023-02-15T09:23:55;102677.13;;;1.86;100.00
4767;BME280;2397;53.576;9.746;2023-02-15T09:26:23;102673.56;;;1.84;100.00
4767;BME280;2397;53.576;9.746;2023-02-15T09:31:20;102660.22;;;1.88;100.00
4767;BME280;2397;53.576;9.746;2023-02-15T09:33:48;102662.22;;;2.02;100.00
4767;BME280;2397;53.576;9.746;2023-02-15T09:36:27;102655.09;;;1.98;100.00
4767;BME280;2397;53.576;9.746;2023-02-15T09:38:57;102663.03;;;1.91;100.00
4767;BME280;2397;53.576;9.746;2023-02-15T09:44:31;102653.81;;;2.03;100.00
4767;BME280;2397;53.576;9.746;2023-02-15T09:47:34;102650.56;;;2.16;100.00
4767;BME280;2397;53.576;9.746;2023-02-15T09:50:16;102659.41;;;2.32;100.00
4767;BME280;2397;53.576;9.746;2023-02-15T09:55:35;102659.88;;;2.16;100.00
4767;BME280;2397;53.576;9.746;2023-02-15T10:00:47;102667.06;;;2.09;100.00
4767;BME280;2397;53.576;9.746;2023-02-15T10:03:25;102668.06;;;2.11;100.00
4767;BME280;2397;53.576;9.746;2023-02-15T10:09:10;102681.75;;;2.12;100.00
4767;BME280;2397;53.576;9.746;2023-02-15T10:17:40;102674.00;;;2.00;100.00
4767;BME280;2397;53.576;9.746;2023-02-15T10:25:43;102673.41;;;2.15;100.00
4767;BME280;2397;53.576;9.746;2023-02-15T10:28:23;102664.56;;;2.21;100.00
4767;BME280;2397;53.576;9.746;2023-02-15T10:31:26;102663.94;;;2.24;100.00
4767;BME280;2397;53.576;9.746;2023-02-15T10:34:11;102673.69;;;2.40;100.00
4767;BME280;2397;53.576;9.746;2023-02-15T10:39:40;102657.97;;;2.35;100.00
4767;BME280;2397;53.576;9.746;2023-02-15T10:50:52;102656.63;;;2.28;100.00
4767;BME280;2397;53.576;9.746;2023-02-15T10:56:12;102655.41;;;2.35;100.00
4767;BME280;2397;53.576;9.746;2023-02-15T11:07:03;102642.00;;;2.38;100.00
4767;BME280;2397;53.576;9.746;2023-02-15T11:09:49;102639.03;;;2.43;100.00
4767;BME280;2397;53.576;9.746;2023-02-15T11:12:22;102641.16;;;2.49;100.00
4767;BME280;2397;53.576;9.746;2023-02-15T11:14:57;102636.41;;;2.54;100.00
4767;BME280;2397;53.576;9.746;2023-02-15T11:17:32;102625.88;;;2.61;100.00
4767;BME280;2397;53.576;9.746;2023-02-15T11:20:08;102627.91;;;2.65;100.00
4767;BME280;2397;53.576;9.746;2023-02-15T11:22:41;102629.19;;;2.60;100.00
4767;BME280;2397;53.576;9.746;2023-02-15T11:25:30;102627.97;;;2.55;100.00
4767;BME280;2397;53.576;9.746;2023-02-15T11:27:58;102632.53;;;2.59;100.00
4767;BME280;2397;53.576;9.746;2023-02-15T11:30:38;102625.19;;;2.52;100.00
4767;BME280;2397;53.576;9.746;2023-02-15T11:33:15;102620.41;;;2.56;100.00
4767;BME280;2397;53.576;9.746;2023-02-15T11:35:50;102618.44;;;2.64;100.00
4767;BME280;2397;53.576;9.746;2023-02-15T11:38:24;102611.69;;;2.76;100.00
4767;BME280;2397;53.576;9.746;2023-02-15T11:41:07;102609.81;;;2.86;100.00
4767;BME280;2397;53.576;9.746;2023-02-15T11:43:39;102605.50;;;2.85;100.00
4767;BME280;2397;53.576;9.746;2023-02-15T11:46:11;102606.03;;;2.80;100.00
4767;BME280;2397;53.576;9.746;2023-02-15T11:48:38;102607.72;;;2.92;100.00
4767;BME280;2397;53.576;9.746;2023-02-15T11:51:05;102593.16;;;2.91;100.00
4767;BME280;2397;53.576;9.746;2023-02-15T11:53:34;102594.47;;;2.86;100.00
4767;BME280;2397;53.576;9.746;2023-02-15T11:56:03;102592.25;;;2.78;100.00
4767;BME280;2397;53.576;9.746;2023-02-15T11:58:37;102589.34;;;2.86;100.00
4767;BME280;2397;53.576;9.746;2023-02-15T12:01:28;102589.38;;;2.97;100.00
4767;BME280;2397;53.576;9.746;2023-02-15T12:06:33;102579.25;;;3.11;100.00
4767;BME280;2397;53.576;9.746;2023-02-15T12:09:09;102574.72;;;3.19;100.00
4767;BME280;2397;53.576;9.746;2023-02-15T12:11:42;102570.38;;;3.17;100.00
4767;BME280;2397;53.576;9.746;2023-02-15T12:14:13;102565.69;;;3.24;100.00
4767;BME280;2397;53.576;9.746;2023-02-15T12:16:49;102554.56;;;3.35;100.00
4767;BME280;2397;53.576;9.746;2023-02-15T12:19:33;102542.97;;;3.40;100.00
4767;BME280;2397;53.576;9.746;2023-02-15T12:22:04;102547.22;;;3.51;100.00
4767;BME280;2397;53.576;9.746;2023-02-15T12:24:36;102548.38;;;3.68;100.00
4767;BME280;2397;53.576;9.746;2023-02-15T12:27:32;102544.16;;;3.81;100.00
4767;BME280;2397;53.576;9.746;2023-02-15T12:30:07;102538.56;;;3.86;100.00
4767;BME280;2397;53.576;9.746;2023-02-15T12:32:58;102532.63;;;3.87;100.00
4767;BME280;2397;53.576;9.746;2023-02-15T12:35:30;102520.44;;;3.83;100.00
4767;BME280;2397;53.576;9.746;2023-02-15T12:38:03;102525.28;;;3.92;100.00
4767;BME280;2397;53.576;9.746;2023-02-15T12:40:32;102513.78;;;3.99;100.00
4767;BME280;2397;53.576;9.746;2023-02-15T12:42:59;102518.19;;;4.13;100.00
4767;BME280;2397;53.576;9.746;2023-02-15T12:45:33;102517.97;;;4.35;100.00
4767;BME280;2397;53.576;9.746;2023-02-15T12:50:40;102509.56;;;4.77;100.00
4767;BME280;2397;53.576;9.746;2023-02-15T12:55:36;102509.56;;;5.43;100.00
4767;BME280;2397;53.576;9.746;2023-02-15T12:58:18;102503.19;;;5.93;100.00
4767;BME280;2397;53.576;9.746;2023-02-15T13:00:45;102508.47;;;6.23;100.00
4767;BME280;2397;53.576;9.746;2023-02-15T13:03:21;102498.09;;;6.37;100.00
4767;BME280;2397;53.576;9.746;2023-02-15T13:05:55;102485.94;;;6.64;100.00
4767;BME280;2397;53.576;9.746;2023-02-15T13:08:27;102485.03;;;6.93;100.00
4767;BME280;2397;53.576;9.746;2023-02-15T13:14:03;102471.63;;;7.30;100.00
4767;BME280;2397;53.576;9.746;2023-02-15T13:16:41;102474.31;;;7.48;100.00
4767;BME280;2397;53.576;9.746;2023-02-15T13:19:14;102473.84;;;7.72;100.00
4767;BME280;2397;53.576;9.746;2023-02-15T13:21:44;102472.28;;;7.59;100.00
4767;BME280;2397;53.576;9.746;2023-02-15T13:24:24;102474.41;;;7.66;100.00
4767;BME280;2397;53.576;9.746;2023-02-15T13:26:54;102468.59;;;8.03;100.00
4767;BME280;2397;53.576;9.746;2023-02-15T13:29:39;102461.63;;;8.35;100.00
4767;BME280;2397;53.576;9.746;2023-02-15T13:32:26;102460.00;;;8.37;100.00
4767;BME280;2397;53.576;9.746;2023-02-15T13:34:59;102459.41;;;8.43;100.00
4767;BME280;2397;53.576;9.746;2023-02-15T13:38:11;102458.88;;;8.67;100.00
4767;BME280;2397;53.576;9.746;2023-02-15T13:40:55;102451.78;;;8.44;100.00
4767;BME280;2397;53.576;9.746;2023-02-15T13:48:55;102441.25;;;8.23;100.00
4767;BME280;2397;53.576;9.746;2023-02-15T13:51:41;102442.72;;;8.36;100.00
4767;BME280;2397;53.576;9.746;2023-02-15T13:59:54;102434.31;;;8.93;100.00
4767;BME280;2397;53.576;9.746;2023-02-15T14:02:39;102422.25;;;9.11;100.00
4767;BME280;2397;53.576;9.746;2023-02-15T14:05:25;102427.16;;;9.05;100.00
4767;BME280;2397;53.576;9.746;2023-02-15T14:08:11;102430.25;;;8.98;100.00
4767;BME280;2397;53.576;9.746;2023-02-15T14:11:03;102429.41;;;8.79;100.00
4767;BME280;2397;53.576;9.746;2023-02-15T14:13:52;102424.38;;;8.65;100.00
4767;BME280;2397;53.576;9.746;2023-02-15T14:16:33;102426.84;;;8.45;100.00
4767;BME280;2397;53.576;9.746;2023-02-15T14:21:41;102422.88;;;8.52;100.00
4767;BME280;2397;53.576;9.746;2023-02-15T14:24:18;102418.59;;;8.52;100.00
4767;BME280;2397;53.576;9.746;2023-02-15T14:26:59;102412.88;;;8.23;100.00
4767;BME280;2397;53.576;9.746;2023-02-15T14:32:12;102416.84;;;8.00;100.00
4767;BME280;2397;53.576;9.746;2023-02-15T14:34:52;102416.41;;;7.91;100.00
4767;BME280;2397;53.576;9.746;2023-02-15T14:37:50;102416.78;;;7.99;100.00
4767;BME280;2397;53.576;9.746;2023-02-15T14:40:38;102404.53;;;7.95;100.00
4767;BME280;2397;53.576;9.746;2023-02-15T14:46:58;102413.66;;;7.88;100.00
4767;BME280;2397;53.576;9.746;2023-02-15T14:49:32;102405.28;;;7.76;100.00
4767;BME280;2397;53.576;9.746;2023-02-15T14:52:02;102403.22;;;7.68;100.00
4767;BME280;2397;53.576;9.746;2023-02-15T15:07:27;102394.31;;;7.80;100.00
4767;BME280;2397;53.576;9.746;2023-02-15T15:14:53;102386.91;;;7.69;100.00
4767;BME280;2397;53.576;9.746;2023-02-15T15:22:35;102391.84;;;7.48;100.00
4767;BME280;2397;53.576;9.746;2023-02-15T15:25:09;102389.13;;;7.45;100.00
4767;BME280;2397;53.576;9.746;2023-02-15T15:47:13;102373.56;;;6.79;100.00
4767;BME280;2397;53.576;9.746;2023-02-15T15:49:43;102368.31;;;6.78;100.00
4767;BME280;2397;53.576;9.746;2023-02-15T15:52:18;102370.09;;;6.79;100.00